sensor_id;sensor_type;location;lat;lon;timestamp;P1;durP1;ratioP1;P2;durP2;ratioP2
78858;SDS011;68210;52.032;4.634;2023-05-10T00:01:54;40.17;;;20.42;;
78858;SDS011;68210;52.032;4.634;2023-05-10T00:03:55;40.22;;;19.60;;
78858;SDS011;68210;52.032;4.634;2023-05-10T00:05:55;44.75;;;21.08;;
78858;SDS011;68210;52.032;4.634;2023-05-10T00:07:55;42.70;;;20.27;;
78858;SDS011;68210;52.032;4.634;2023-05-10T00:09:56;42.75;;;20.73;;
78858;SDS011;68210;52.032;4.634;2023-05-10T00:11:56;47.75;;;21.95;;
78858;SDS011;68210;52.032;4.634;2023-05-10T00:13:58;40.25;;;21.35;;
78858;SDS011;68210;52.032;4.634;2023-05-10T00:15:58;44.55;;;21.00;;
78858;SDS011;68210;52.032;4.634;2023-05-10T00:17:59;36.42;;;17.55;;
78858;SDS011;68210;52.032;4.634;2023-05-10T00:19:59;46.75;;;22.20;;
78858;SDS011;68210;52.032;4.634;2023-05-10T00:22:00;48.45;;;22.92;;
78858;SDS011;68210;52.032;4.634;2023-05-10T00:24:00;47.85;;;21.42;;
78858;SDS011;68210;52.032;4.634;2023-05-10T00:26:01;48.28;;;22.95;;
78858;SDS011;68210;52.032;4.634;2023-05-10T00:28:01;51.88;;;23.60;;
78858;SDS011;68210;52.032;4.634;2023-05-10T00:30:02;46.40;;;20.77;;
78858;SDS011;68210;52.032;4.634;2023-05-10T00:32:03;58.00;;;25.02;;
78858;SDS011;68210;52.032;4.634;2023-05-10T00:34:03;53.85;;;25.88;;
78858;SDS011;68210;52.032;4.634;2023-05-10T00:36:04;55.65;;;26.85;;
78858;SDS011;68210;52.032;4.634;2023-05-10T00:38:07;55.90;;;26.42;;
78858;SDS011;68210;52.032;4.634;2023-05-10T00:40:08;66.45;;;27.98;;
78858;SDS011;68210;52.032;4.634;2023-05-10T00:42:09;47.10;;;23.15;;
78858;SDS011;68210;52.032;4.634;2023-05-10T00:44:09;62.15;;;28.85;;
78858;SDS011;68210;52.032;4.634;2023-05-10T00:46:10;61.10;;;25.92;;
78858;SDS011;68210;52.032;4.634;2023-05-10T00:48:10;78.25;;;31.13;;
78858;SDS011;68210;52.032;4.634;2023-05-10T00:50:11;74.57;;;29.48;;
78858;SDS011;68210;52.032;4.634;2023-05-10T00:52:12;53.10;;;25.38;;
78858;SDS011;68210;52.032;4.634;2023-05-10T00:54:14;49.25;;;23.42;;
78858;SDS011;68210;52.032;4.634;2023-05-10T00:56:15;62.78;;;29.17;;
78858;SDS011;68210;52.032;4.634;2023-05-10T00:58:15;45.05;;;23.42;;
78858;SDS011;68210;52.032;4.634;2023-05-10T01:00:16;81.93;;;32.65;;
78858;SDS011;68210;52.032;4.634;2023-05-10T01:02:18;51.85;;;26.13;;
78858;SDS011;68210;52.032;4.634;2023-05-10T01:04:18;47.17;;;24.33;;
78858;SDS011;68210;52.032;4.634;2023-05-10T01:06:21;57.88;;;27.10;;
78858;SDS011;68210;52.032;4.634;2023-05-10T01:08:22;57.65;;;30.27;;
78858;SDS011;68210;52.032;4.634;2023-05-10T01:10:22;55.67;;;29.42;;
78858;SDS011;68210;52.032;4.634;2023-05-10T01:12:22;59.60;;;29.40;;
78858;SDS011;68210;52.032;4.634;2023-05-10T01:14:23;63.58;;;31.25;;
78858;SDS011;68210;52.032;4.634;2023-05-10T01:16:25;57.45;;;29.98;;
78858;SDS011;68210;52.032;4.634;2023-05-10T01:18:26;53.70;;;28.73;;
78858;SDS011;68210;52.032;4.634;2023-05-10T01:20:32;50.25;;;25.42;;
78858;SDS011;68210;52.032;4.634;2023-05-10T01:32:40;65.00;;;29.58;;
78858;SDS011;68210;52.032;4.634;2023-05-10T01:34:50;79.28;;;31.20;;
78858;SDS011;68210;52.032;4.634;2023-05-10T01:37:09;79.68;;;31.33;;
78858;SDS011;68210;52.032;4.634;2023-05-10T01:39:24;79.43;;;30.70;;
78858;SDS011;68210;52.032;4.634;2023-05-10T01:43:42;80.60;;;30.40;;
78858;SDS011;68210;52.032;4.634;2023-05-10T01:46:01;82.85;;;29.35;;
78858;SDS011;68210;52.032;4.634;2023-05-10T01:48:10;78.28;;;27.25;;
78858;SDS011;68210;52.032;4.634;2023-05-10T01:50:15;100.40;;;30.50;;
78858;SDS011;68210;52.032;4.634;2023-05-10T01:52:19;86.63;;;27.48;;
78858;SDS011;68210;52.032;4.634;2023-05-10T01:54:26;85.07;;;27.77;;
78858;SDS011;68210;52.032;4.634;2023-05-10T01:56:29;79.43;;;26.58;;
78858;SDS011;68210;52.032;4.634;2023-05-10T01:58:32;80.05;;;28.00;;
78858;SDS011;68210;52.032;4.634;2023-05-10T02:00:34;75.30;;;25.52;;
78858;SDS011;68210;52.032;4.634;2023-05-10T02:02:37;77.88;;;28.90;;
78858;SDS011;68210;52.032;4.634;2023-05-10T02:04:39;78.65;;;28.77;;
78858;SDS011;68210;52.032;4.634;2023-05-10T02:06:41;81.70;;;28.40;;
78858;SDS011;68210;52.032;4.634;2023-05-10T02:08:42;77.93;;;28.88;;
78858;SDS011;68210;52.032;4.634;2023-05-10T02:10:45;69.03;;;28.27;;
78858;SDS011;68210;52.032;4.634;2023-05-10T02:12:47;73.38;;;29.10;;
78858;SDS011;68210;52.032;4.634;2023-05-10T02:14:49;72.47;;;28.13;;
78858;SDS011;68210;52.032;4.634;2023-05-10T02:16:52;69.90;;;28.13;;
78858;SDS011;68210;52.032;4.634;2023-05-10T02:18:55;68.90;;;29.67;;
78858;SDS011;68210;52.032;4.634;2023-05-10T02:20:59;67.40;;;27.75;;
78858;SDS011;68210;52.032;4.634;2023-05-10T02:23:01;68.72;;;27.48;;
78858;SDS011;68210;52.032;4.634;2023-05-10T02:25:03;64.53;;;26.50;;
78858;SDS011;68210;52.032;4.634;2023-05-10T02:27:04;59.00;;;23.27;;
78858;SDS011;68210;52.032;4.634;2023-05-10T02:29:04;62.63;;;24.67;;
78858;SDS011;68210;52.032;4.634;2023-05-10T02:31:07;68.50;;;26.52;;
78858;SDS011;68210;52.032;4.634;2023-05-10T02:33:09;68.25;;;25.92;;
78858;SDS011;68210;52.032;4.634;2023-05-10T02:35:11;62.25;;;26.50;;
78858;SDS011;68210;52.032;4.634;2023-05-10T02:37:13;55.95;;;22.08;;
78858;SDS011;68210;52.032;4.634;2023-05-10T02:39:15;59.00;;;23.70;;
78858;SDS011;68210;52.032;4.634;2023-05-10T02:41:18;58.13;;;25.27;;
78858;SDS011;68210;52.032;4.634;2023-05-10T02:43:21;57.05;;;23.27;;
78858;SDS011;68210;52.032;4.634;2023-05-10T02:45:23;55.15;;;24.13;;
78858;SDS011;68210;52.032;4.634;2023-05-10T02:47:28;47.20;;;22.35;;
78858;SDS011;68210;52.032;4.634;2023-05-10T02:49:29;58.08;;;26.30;;
78858;SDS011;68210;52.032;4.634;2023-05-10T02:51:31;54.78;;;24.05;;
78858;SDS011;68210;52.032;4.634;2023-05-10T02:53:34;51.22;;;22.77;;
78858;SDS011;68210;52.032;4.634;2023-05-10T02:55:38;55.53;;;23.55;;
78858;SDS011;68210;52.032;4.634;2023-05-10T02:57:51;54.60;;;24.48;;
78858;SDS011;68210;52.032;4.634;2023-05-10T02:59:54;54.10;;;24.35;;
78858;SDS011;68210;52.032;4.634;2023-05-10T03:01:55;49.72;;;22.80;;
78858;SDS011;68210;52.032;4.634;2023-05-10T03:03:55;60.47;;;25.98;;
78858;SDS011;68210;52.032;4.634;2023-05-10T03:05:56;55.35;;;24.70;;
78858;SDS011;68210;52.032;4.634;2023-05-10T03:07:57;52.60;;;24.27;;
78858;SDS011;68210;52.032;4.634;2023-05-10T03:16:23;45.05;;;21.10;;
78858;SDS011;68210;52.032;4.634;2023-05-10T03:18:28;49.20;;;22.95;;
78858;SDS011;68210;52.032;4.634;2023-05-10T03:20:43;48.55;;;21.88;;
78858;SDS011;68210;52.032;4.634;2023-05-10T03:22:48;43.20;;;19.88;;
78858;SDS011;68210;52.032;4.634;2023-05-10T03:24:53;47.72;;;22.02;;
78858;SDS011;68210;52.032;4.634;2023-05-10T03:26:57;46.22;;;20.90;;
78858;SDS011;68210;52.032;4.634;2023-05-10T03:29:02;40.10;;;19.73;;
78858;SDS011;68210;52.032;4.634;2023-05-10T03:31:04;54.08;;;25.30;;
78858;SDS011;68210;52.032;4.634;2023-05-10T03:33:06;49.15;;;25.90;;
78858;SDS011;68210;52.032;4.634;2023-05-10T03:35:09;59.28;;;27.90;;
78858;SDS011;68210;52.032;4.634;2023-05-10T03:37:11;59.58;;;27.70;;
78858;SDS011;68210;52.032;4.634;2023-05-10T03:39:12;48.58;;;24.00;;
78858;SDS011;68210;52.032;4.634;2023-05-10T03:41:12;55.58;;;26.23;;
78858;SDS011;68210;52.032;4.634;2023-05-10T03:43:12;56.13;;;26.50;;
78858;SDS011;68210;52.032;4.634;2023-05-10T03:45:13;43.35;;;22.23;;
78858;SDS011;68210;52.032;4.634;2023-05-10T03:47:13;56.08;;;26.88;;
78858;SDS011;68210;52.032;4.634;2023-05-10T03:49:14;58.63;;;26.52;;
78858;SDS011;68210;52.032;4.634;2023-05-10T03:51:14;55.25;;;26.50;;
78858;SDS011;68210;52.032;4.634;2023-05-10T03:53:14;44.95;;;25.50;;
78858;SDS011;68210;52.032;4.634;2023-05-10T03:55:15;59.80;;;29.35;;
78858;SDS011;68210;52.032;4.634;2023-05-10T03:57:16;54.38;;;28.50;;
78858;SDS011;68210;52.032;4.634;2023-05-10T03:59:16;42.63;;;23.45;;
78858;SDS011;68210;52.032;4.634;2023-05-10T04:01:17;36.22;;;22.13;;
78858;SDS011;68210;52.032;4.634;2023-05-10T04:03:17;31.48;;;18.55;;
78858;SDS011;68210;52.032;4.634;2023-05-10T04:05:18;44.03;;;24.20;;
78858;SDS011;68210;52.032;4.634;2023-05-10T04:07:18;36.53;;;21.17;;
78858;SDS011;68210;52.032;4.634;2023-05-10T04:09:18;42.78;;;22.85;;
78858;SDS011;68210;52.032;4.634;2023-05-10T04:11:19;41.53;;;22.65;;
78858;SDS011;68210;52.032;4.634;2023-05-10T04:13:21;39.72;;;21.50;;
78858;SDS011;68210;52.032;4.634;2023-05-10T04:15:22;44.42;;;25.23;;
78858;SDS011;68210;52.032;4.634;2023-05-10T04:17:23;45.10;;;25.30;;
78858;SDS011;68210;52.032;4.634;2023-05-10T04:19:23;43.28;;;22.35;;
78858;SDS011;68210;52.032;4.634;2023-05-10T04:21:23;39.72;;;20.45;;
78858;SDS011;68210;52.032;4.634;2023-05-10T04:23:24;39.03;;;21.77;;
78858;SDS011;68210;52.032;4.634;2023-05-10T04:25:24;49.65;;;25.45;;
78858;SDS011;68210;52.032;4.634;2023-05-10T04:27:25;35.65;;;22.08;;
78858;SDS011;68210;52.032;4.634;2023-05-10T04:29:26;44.00;;;25.88;;
78858;SDS011;68210;52.032;4.634;2023-05-10T04:31:27;38.20;;;23.55;;
78858;SDS011;68210;52.032;4.634;2023-05-10T04:33:27;47.70;;;27.77;;
78858;SDS011;68210;52.032;4.634;2023-05-10T04:35:28;47.92;;;27.15;;
78858;SDS011;68210;52.032;4.634;2023-05-10T04:37:28;56.83;;;30.50;;
78858;SDS011;68210;52.032;4.634;2023-05-10T04:39:28;37.00;;;22.48;;
78858;SDS011;68210;52.032;4.634;2023-05-10T04:41:29;36.75;;;21.92;;
78858;SDS011;68210;52.032;4.634;2023-05-10T04:43:29;39.20;;;23.00;;
78858;SDS011;68210;52.032;4.634;2023-05-10T04:45:29;38.22;;;23.33;;
78858;SDS011;68210;52.032;4.634;2023-05-10T04:47:30;35.10;;;21.65;;
78858;SDS011;68210;52.032;4.634;2023-05-10T04:49:30;36.03;;;19.80;;
78858;SDS011;68210;52.032;4.634;2023-05-10T04:51:31;37.08;;;19.63;;
78858;SDS011;68210;52.032;4.634;2023-05-10T04:53:32;37.58;;;18.27;;
78858;SDS011;68210;52.032;4.634;2023-05-10T04:55:32;38.60;;;19.00;;
78858;SDS011;68210;52.032;4.634;2023-05-10T04:57:32;35.42;;;20.05;;
78858;SDS011;68210;52.032;4.634;2023-05-10T04:59:35;33.67;;;17.40;;
78858;SDS011;68210;52.032;4.634;2023-05-10T05:01:36;47.55;;;21.88;;
78858;SDS011;68210;52.032;4.634;2023-05-10T05:03:36;33.25;;;17.33;;
78858;SDS011;68210;52.032;4.634;2023-05-10T05:05:37;30.52;;;16.60;;
78858;SDS011;68210;52.032;4.634;2023-05-10T05:07:37;26.77;;;15.90;;
78858;SDS011;68210;52.032;4.634;2023-05-10T05:09:38;28.83;;;15.43;;
78858;SDS011;68210;52.032;4.634;2023-05-10T05:11:38;28.85;;;14.85;;
78858;SDS011;68210;52.032;4.634;2023-05-10T05:13:40;29.23;;;16.13;;
78858;SDS011;68210;52.032;4.634;2023-05-10T05:15:40;31.95;;;16.05;;
78858;SDS011;68210;52.032;4.634;2023-05-10T05:17:40;29.02;;;15.02;;
78858;SDS011;68210;52.032;4.634;2023-05-10T05:19:41;27.20;;;14.35;;
78858;SDS011;68210;52.032;4.634;2023-05-10T05:21:41;29.40;;;15.77;;
78858;SDS011;68210;52.032;4.634;2023-05-10T05:23:41;27.98;;;15.65;;
78858;SDS011;68210;52.032;4.634;2023-05-10T05:25:42;35.03;;;16.50;;
78858;SDS011;68210;52.032;4.634;2023-05-10T05:27:42;29.83;;;16.42;;
78858;SDS011;68210;52.032;4.634;2023-05-10T05:29:43;33.92;;;18.58;;
78858;SDS011;68210;52.032;4.634;2023-05-10T05:31:44;37.70;;;18.83;;
78858;SDS011;68210;52.032;4.634;2023-05-10T05:33:44;34.63;;;18.00;;
78858;SDS011;68210;52.032;4.634;2023-05-10T05:35:45;36.85;;;18.75;;
78858;SDS011;68210;52.032;4.634;2023-05-10T05:37:50;38.03;;;18.45;;
78858;SDS011;68210;52.032;4.634;2023-05-10T05:39:50;34.20;;;17.60;;
78858;SDS011;68210;52.032;4.634;2023-05-10T05:41:51;37.22;;;16.52;;
78858;SDS011;68210;52.032;4.634;2023-05-10T05:43:51;28.80;;;13.13;;
78858;SDS011;68210;52.032;4.634;2023-05-10T05:45:52;26.30;;;13.30;;
78858;SDS011;68210;52.032;4.634;2023-05-10T05:47:53;23.80;;;12.23;;
78858;SDS011;68210;52.032;4.634;2023-05-10T05:49:53;28.10;;;12.73;;
78858;SDS011;68210;52.032;4.634;2023-05-10T05:51:54;25.98;;;13.13;;
78858;SDS011;68210;52.032;4.634;2023-05-10T05:53:54;24.23;;;10.52;;
78858;SDS011;68210;52.032;4.634;2023-05-10T05:55:55;27.30;;;11.55;;
78858;SDS011;68210;52.032;4.634;2023-05-10T05:57:58;22.10;;;11.02;;
78858;SDS011;68210;52.032;4.634;2023-05-10T05:59:58;21.75;;;10.23;;
78858;SDS011;68210;52.032;4.634;2023-05-10T06:01:59;21.17;;;9.65;;
78858;SDS011;68210;52.032;4.634;2023-05-10T06:04:00;18.33;;;8.30;;
78858;SDS011;68210;52.032;4.634;2023-05-10T06:06:00;17.90;;;9.10;;
78858;SDS011;68210;52.032;4.634;2023-05-10T06:08:01;20.48;;;9.07;;
78858;SDS011;68210;52.032;4.634;2023-05-10T06:10:01;17.02;;;8.48;;
78858;SDS011;68210;52.032;4.634;2023-05-10T06:12:02;18.23;;;9.75;;
78858;SDS011;68210;52.032;4.634;2023-05-10T06:14:03;22.70;;;9.52;;
78858;SDS011;68210;52.032;4.634;2023-05-10T06:16:04;16.88;;;8.95;;
78858;SDS011;68210;52.032;4.634;2023-05-10T06:18:05;13.73;;;7.88;;
78858;SDS011;68210;52.032;4.634;2023-05-10T06:20:06;14.63;;;8.15;;
78858;SDS011;68210;52.032;4.634;2023-05-10T06:22:06;13.48;;;7.40;;
78858;SDS011;68210;52.032;4.634;2023-05-10T06:24:07;17.67;;;8.65;;
78858;SDS011;68210;52.032;4.634;2023-05-10T06:26:08;15.95;;;7.68;;
78858;SDS011;68210;52.032;4.634;2023-05-10T06:28:08;11.63;;;6.53;;
78858;SDS011;68210;52.032;4.634;2023-05-10T06:30:09;17.50;;;7.53;;
78858;SDS011;68210;52.032;4.634;2023-05-10T06:32:10;12.45;;;7.45;;
78858;SDS011;68210;52.032;4.634;2023-05-10T06:34:10;12.32;;;7.47;;
78858;SDS011;68210;52.032;4.634;2023-05-10T06:36:11;10.05;;;5.95;;
78858;SDS011;68210;52.032;4.634;2023-05-10T06:38:13;12.10;;;6.72;;
78858;SDS011;68210;52.032;4.634;2023-05-10T06:40:13;10.40;;;6.82;;
78858;SDS011;68210;52.032;4.634;2023-05-10T06:42:13;11.00;;;6.68;;
78858;SDS011;68210;52.032;4.634;2023-05-10T06:44:14;10.55;;;6.97;;
78858;SDS011;68210;52.032;4.634;2023-05-10T06:46:14;9.63;;;6.18;;
78858;SDS011;68210;52.032;4.634;2023-05-10T06:48:15;10.50;;;7.05;;
78858;SDS011;68210;52.032;4.634;2023-05-10T06:50:15;10.43;;;6.80;;
78858;SDS011;68210;52.032;4.634;2023-05-10T06:52:15;7.55;;;5.97;;
78858;SDS011;68210;52.032;4.634;2023-05-10T06:54:16;8.10;;;5.10;;
78858;SDS011;68210;52.032;4.634;2023-05-10T06:56:16;7.68;;;4.55;;
78858;SDS011;68210;52.032;4.634;2023-05-10T06:58:17;7.32;;;4.93;;
78858;SDS011;68210;52.032;4.634;2023-05-10T07:00:17;5.85;;;4.20;;
78858;SDS011;68210;52.032;4.634;2023-05-10T07:02:18;5.60;;;4.00;;
78858;SDS011;68210;52.032;4.634;2023-05-10T07:04:18;5.15;;;3.90;;
78858;SDS011;68210;52.032;4.634;2023-05-10T07:06:19;5.53;;;3.72;;
78858;SDS011;68210;52.032;4.634;2023-05-10T07:08:19;4.78;;;3.20;;
78858;SDS011;68210;52.032;4.634;2023-05-10T07:10:20;5.55;;;3.97;;
78858;SDS011;68210;52.032;4.634;2023-05-10T07:12:20;6.35;;;3.38;;
78858;SDS011;68210;52.032;4.634;2023-05-10T07:14:22;5.95;;;3.67;;
78858;SDS011;68210;52.032;4.634;2023-05-10T07:16:22;5.25;;;3.63;;
78858;SDS011;68210;52.032;4.634;2023-05-10T07:18:23;4.43;;;3.40;;
78858;SDS011;68210;52.032;4.634;2023-05-10T07:20:24;6.03;;;2.90;;
78858;SDS011;68210;52.032;4.634;2023-05-10T07:22:24;5.63;;;3.72;;
78858;SDS011;68210;52.032;4.634;2023-05-10T07:24:25;6.22;;;4.15;;
78858;SDS011;68210;52.032;4.634;2023-05-10T07:26:25;6.50;;;4.03;;
78858;SDS011;68210;52.032;4.634;2023-05-10T07:28:25;5.65;;;3.10;;
78858;SDS011;68210;52.032;4.634;2023-05-10T07:30:26;6.50;;;4.10;;
78858;SDS011;68210;52.032;4.634;2023-05-10T07:32:26;6.28;;;3.95;;
78858;SDS011;68210;52.032;4.634;2023-05-10T07:34:26;6.25;;;3.70;;
78858;SDS011;68210;52.032;4.634;2023-05-10T07:36:28;5.82;;;3.60;;
78858;SDS011;68210;52.032;4.634;2023-05-10T07:38:28;5.05;;;3.50;;
78858;SDS011;68210;52.032;4.634;2023-05-10T07:40:29;8.20;;;4.10;;
78858;SDS011;68210;52.032;4.634;2023-05-10T07:42:30;7.78;;;4.72;;
78858;SDS011;68210;52.032;4.634;2023-05-10T07:44:30;5.55;;;3.78;;
78858;SDS011;68210;52.032;4.634;2023-05-10T07:46:31;7.00;;;4.35;;
78858;SDS011;68210;52.032;4.634;2023-05-10T07:48:31;9.68;;;4.57;;
78858;SDS011;68210;52.032;4.634;2023-05-10T07:50:31;6.18;;;3.90;;
78858;SDS011;68210;52.032;4.634;2023-05-10T07:52:32;8.95;;;4.60;;
78858;SDS011;68210;52.032;4.634;2023-05-10T07:54:33;8.35;;;4.45;;
78858;SDS011;68210;52.032;4.634;2023-05-10T07:56:33;8.73;;;4.60;;
78858;SDS011;68210;52.032;4.634;2023-05-10T07:58:34;8.30;;;5.18;;
78858;SDS011;68210;52.032;4.634;2023-05-10T08:00:34;12.45;;;4.95;;
78858;SDS011;68210;52.032;4.634;2023-05-10T08:02:35;7.22;;;4.20;;
78858;SDS011;68210;52.032;4.634;2023-05-10T08:04:36;7.57;;;4.50;;
78858;SDS011;68210;52.032;4.634;2023-05-10T08:06:36;7.50;;;3.95;;
78858;SDS011;68210;52.032;4.634;2023-05-10T08:08:37;12.55;;;4.78;;
78858;SDS011;68210;52.032;4.634;2023-05-10T08:10:37;7.63;;;4.78;;
78858;SDS011;68210;52.032;4.634;2023-05-10T08:12:38;10.07;;;5.00;;
78858;SDS011;68210;52.032;4.634;2023-05-10T08:14:38;10.00;;;5.40;;
78858;SDS011;68210;52.032;4.634;2023-05-10T08:16:38;9.63;;;5.00;;
78858;SDS011;68210;52.032;4.634;2023-05-10T08:18:39;9.50;;;4.70;;
78858;SDS011;68210;52.032;4.634;2023-05-10T08:20:40;9.90;;;4.93;;
78858;SDS011;68210;52.032;4.634;2023-05-10T08:22:40;6.70;;;4.88;;
78858;SDS011;68210;52.032;4.634;2023-05-10T08:24:40;8.73;;;4.57;;
78858;SDS011;68210;52.032;4.634;2023-05-10T08:26:41;8.73;;;4.57;;
78858;SDS011;68210;52.032;4.634;2023-05-10T08:28:42;9.85;;;5.13;;
78858;SDS011;68210;52.032;4.634;2023-05-10T08:30:42;9.00;;;4.63;;
78858;SDS011;68210;52.032;4.634;2023-05-10T08:32:42;9.88;;;5.22;;
78858;SDS011;68210;52.032;4.634;2023-05-10T08:34:43;9.05;;;4.75;;
78858;SDS011;68210;52.032;4.634;2023-05-10T08:36:43;8.40;;;4.82;;
78858;SDS011;68210;52.032;4.634;2023-05-10T08:38:43;7.68;;;4.55;;
78858;SDS011;68210;52.032;4.634;2023-05-10T08:40:44;6.68;;;4.60;;
78858;SDS011;68210;52.032;4.634;2023-05-10T08:43:00;9.52;;;4.78;;
78858;SDS011;68210;52.032;4.634;2023-05-10T08:45:09;9.55;;;5.38;;
78858;SDS011;68210;52.032;4.634;2023-05-10T08:47:11;8.23;;;4.07;;
78858;SDS011;68210;52.032;4.634;2023-05-10T08:49:13;8.38;;;4.72;;
78858;SDS011;68210;52.032;4.634;2023-05-10T08:51:19;8.75;;;4.72;;
78858;SDS011;68210;52.032;4.634;2023-05-10T08:53:22;8.15;;;4.90;;
78858;SDS011;68210;52.032;4.634;2023-05-10T08:57:25;9.27;;;4.77;;
78858;SDS011;68210;52.032;4.634;2023-05-10T08:59:25;8.15;;;4.72;;
78858;SDS011;68210;52.032;4.634;2023-05-10T09:01:26;11.43;;;5.30;;
78858;SDS011;68210;52.032;4.634;2023-05-10T09:03:27;9.77;;;5.97;;
78858;SDS011;68210;52.032;4.634;2023-05-10T09:05:27;11.48;;;4.65;;
78858;SDS011;68210;52.032;4.634;2023-05-10T09:07:31;11.07;;;5.00;;
78858;SDS011;68210;52.032;4.634;2023-05-10T09:09:31;6.57;;;3.88;;
78858;SDS011;68210;52.032;4.634;2023-05-10T09:11:32;8.90;;;4.35;;
78858;SDS011;68210;52.032;4.634;2023-05-10T09:13:32;7.50;;;4.45;;
78858;SDS011;68210;52.032;4.634;2023-05-10T09:15:33;7.53;;;4.35;;
78858;SDS011;68210;52.032;4.634;2023-05-10T09:17:33;6.55;;;3.75;;
78858;SDS011;68210;52.032;4.634;2023-05-10T09:19:34;7.97;;;4.05;;
78858;SDS011;68210;52.032;4.634;2023-05-10T09:21:35;8.77;;;4.07;;
78858;SDS011;68210;52.032;4.634;2023-05-10T09:23:38;7.80;;;4.65;;
78858;SDS011;68210;52.032;4.634;2023-05-10T09:25:38;5.75;;;4.43;;
78858;SDS011;68210;52.032;4.634;2023-05-10T09:27:41;8.05;;;4.70;;
78858;SDS011;68210;52.032;4.634;2023-05-10T09:29:45;9.02;;;4.88;;
78858;SDS011;68210;52.032;4.634;2023-05-10T09:31:49;8.20;;;4.30;;
78858;SDS011;68210;52.032;4.634;2023-05-10T09:33:56;7.88;;;4.57;;
78858;SDS011;68210;52.032;4.634;2023-05-10T09:36:05;9.57;;;4.60;;
78858;SDS011;68210;52.032;4.634;2023-05-10T09:38:07;5.05;;;3.47;;
78858;SDS011;68210;52.032;4.634;2023-05-10T09:40:08;6.38;;;3.35;;
78858;SDS011;68210;52.032;4.634;2023-05-10T09:42:12;7.00;;;3.97;;
78858;SDS011;68210;52.032;4.634;2023-05-10T09:44:16;5.75;;;3.88;;
78858;SDS011;68210;52.032;4.634;2023-05-10T09:46:17;5.75;;;3.92;;
78858;SDS011;68210;52.032;4.634;2023-05-10T09:48:18;4.65;;;3.15;;
78858;SDS011;68210;52.032;4.634;2023-05-10T09:50:19;5.90;;;3.72;;
78858;SDS011;68210;52.032;4.634;2023-05-10T09:52:21;8.00;;;4.00;;
78858;SDS011;68210;52.032;4.634;2023-05-10T09:54:22;5.60;;;3.75;;
78858;SDS011;68210;52.032;4.634;2023-05-10T09:56:33;5.75;;;4.38;;
78858;SDS011;68210;52.032;4.634;2023-05-10T09:58:38;5.70;;;3.50;;
78858;SDS011;68210;52.032;4.634;2023-05-10T10:00:40;6.00;;;4.15;;
78858;SDS011;68210;52.032;4.634;2023-05-10T10:02:41;8.20;;;4.53;;
78858;SDS011;68210;52.032;4.634;2023-05-10T10:04:42;6.43;;;4.20;;
78858;SDS011;68210;52.032;4.634;2023-05-10T10:06:42;6.18;;;3.97;;
78858;SDS011;68210;52.032;4.634;2023-05-10T10:08:43;7.72;;;4.95;;
78858;SDS011;68210;52.032;4.634;2023-05-10T10:10:43;8.10;;;5.05;;
78858;SDS011;68210;52.032;4.634;2023-05-10T10:12:47;7.30;;;4.80;;
78858;SDS011;68210;52.032;4.634;2023-05-10T10:14:47;6.57;;;4.50;;
78858;SDS011;68210;52.032;4.634;2023-05-10T10:16:50;6.53;;;4.35;;
78858;SDS011;68210;52.032;4.634;2023-05-10T10:18:54;7.63;;;5.10;;
78858;SDS011;68210;52.032;4.634;2023-05-10T10:20:54;6.55;;;4.22;;
78858;SDS011;68210;52.032;4.634;2023-05-10T10:22:55;7.85;;;4.80;;
78858;SDS011;68210;52.032;4.634;2023-05-10T10:24:56;6.78;;;4.50;;
78858;SDS011;68210;52.032;4.634;2023-05-10T10:26:59;8.18;;;5.10;;
78858;SDS011;68210;52.032;4.634;2023-05-10T10:29:35;7.03;;;4.45;;
78858;SDS011;68210;52.032;4.634;2023-05-10T10:31:47;7.32;;;4.72;;
78858;SDS011;68210;52.032;4.634;2023-05-10T10:36:00;11.02;;;6.95;;
78858;SDS011;68210;52.032;4.634;2023-05-10T10:38:02;12.10;;;7.28;;
78858;SDS011;68210;52.032;4.634;2023-05-10T10:40:21;11.57;;;7.30;;
78858;SDS011;68210;52.032;4.634;2023-05-10T10:45:00;10.32;;;5.43;;
78858;SDS011;68210;52.032;4.634;2023-05-10T10:49:18;10.88;;;5.55;;
78858;SDS011;68210;52.032;4.634;2023-05-10T10:51:19;13.52;;;7.13;;
78858;SDS011;68210;52.032;4.634;2023-05-10T10:53:19;12.98;;;6.45;;
78858;SDS011;68210;52.032;4.634;2023-05-10T10:55:20;10.93;;;5.72;;
78858;SDS011;68210;52.032;4.634;2023-05-10T10:57:24;10.75;;;6.03;;
78858;SDS011;68210;52.032;4.634;2023-05-10T10:59:26;11.85;;;6.65;;
78858;SDS011;68210;52.032;4.634;2023-05-10T11:01:32;8.32;;;5.18;;
78858;SDS011;68210;52.032;4.634;2023-05-10T11:03:33;10.60;;;5.68;;
78858;SDS011;68210;52.032;4.634;2023-05-10T11:07:35;11.05;;;6.18;;
78858;SDS011;68210;52.032;4.634;2023-05-10T11:09:39;10.63;;;5.60;;
78858;SDS011;68210;52.032;4.634;2023-05-10T11:11:57;12.23;;;6.07;;
78858;SDS011;68210;52.032;4.634;2023-05-10T11:14:04;16.42;;;6.18;;
78858;SDS011;68210;52.032;4.634;2023-05-10T11:16:12;12.20;;;5.75;;
78858;SDS011;68210;52.032;4.634;2023-05-10T11:18:20;12.52;;;6.32;;
78858;SDS011;68210;52.032;4.634;2023-05-10T11:20:23;9.13;;;5.72;;
78858;SDS011;68210;52.032;4.634;2023-05-10T11:22:48;8.57;;;5.00;;
78858;SDS011;68210;52.032;4.634;2023-05-10T11:24:59;9.52;;;5.22;;
78858;SDS011;68210;52.032;4.634;2023-05-10T11:27:00;9.45;;;5.50;;
78858;SDS011;68210;52.032;4.634;2023-05-10T11:29:01;8.25;;;5.60;;
78858;SDS011;68210;52.032;4.634;2023-05-10T11:31:04;4.95;;;3.75;;
78858;SDS011;68210;52.032;4.634;2023-05-10T11:33:08;5.90;;;4.82;;
78858;SDS011;68210;52.032;4.634;2023-05-10T11:35:10;10.70;;;5.97;;
78858;SDS011;68210;52.032;4.634;2023-05-10T11:37:11;13.15;;;7.10;;
78858;SDS011;68210;52.032;4.634;2023-05-10T11:39:11;12.07;;;7.10;;
78858;SDS011;68210;52.032;4.634;2023-05-10T11:41:12;8.75;;;6.05;;
78858;SDS011;68210;52.032;4.634;2023-05-10T11:43:12;9.60;;;5.63;;
78858;SDS011;68210;52.032;4.634;2023-05-10T11:45:13;10.38;;;5.22;;
78858;SDS011;68210;52.032;4.634;2023-05-10T11:47:13;7.82;;;4.97;;
78858;SDS011;68210;52.032;4.634;2023-05-10T11:49:14;11.00;;;5.95;;
78858;SDS011;68210;52.032;4.634;2023-05-10T11:51:15;8.52;;;5.28;;
78858;SDS011;68210;52.032;4.634;2023-05-10T11:53:23;8.50;;;5.63;;
78858;SDS011;68210;52.032;4.634;2023-05-10T11:55:25;7.97;;;5.63;;
78858;SDS011;68210;52.032;4.634;2023-05-10T11:57:26;10.10;;;6.43;;
78858;SDS011;68210;52.032;4.634;2023-05-10T11:59:28;11.52;;;6.40;;
78858;SDS011;68210;52.032;4.634;2023-05-10T12:01:28;8.63;;;5.80;;
78858;SDS011;68210;52.032;4.634;2023-05-10T12:03:30;9.43;;;6.03;;
78858;SDS011;68210;52.032;4.634;2023-05-10T12:05:32;9.85;;;6.30;;
78858;SDS011;68210;52.032;4.634;2023-05-10T12:07:33;7.28;;;5.32;;
78858;SDS011;68210;52.032;4.634;2023-05-10T12:09:34;7.72;;;5.68;;
78858;SDS011;68210;52.032;4.634;2023-05-10T12:11:39;8.77;;;5.22;;
78858;SDS011;68210;52.032;4.634;2023-05-10T12:13:40;9.07;;;5.60;;
78858;SDS011;68210;52.032;4.634;2023-05-10T12:15:43;11.40;;;4.85;;
78858;SDS011;68210;52.032;4.634;2023-05-10T12:17:43;8.40;;;5.40;;
78858;SDS011;68210;52.032;4.634;2023-05-10T12:19:44;8.75;;;5.40;;
78858;SDS011;68210;52.032;4.634;2023-05-10T12:21:45;7.95;;;4.40;;
78858;SDS011;68210;52.032;4.634;2023-05-10T12:23:46;7.53;;;4.20;;
78858;SDS011;68210;52.032;4.634;2023-05-10T12:25:47;8.15;;;5.18;;
78858;SDS011;68210;52.032;4.634;2023-05-10T12:27:54;8.85;;;5.45;;
78858;SDS011;68210;52.032;4.634;2023-05-10T12:29:55;9.52;;;5.68;;
78858;SDS011;68210;52.032;4.634;2023-05-10T12:31:59;9.02;;;5.50;;
78858;SDS011;68210;52.032;4.634;2023-05-10T12:34:00;8.63;;;5.28;;